createdAt,value
2022-09-26T00:00:46.608Z,-20247.03
2022-09-26T00:03:14.212Z,-20246.56
2022-09-26T00:05:41.746Z,-20247.50
2022-09-26T00:08:09.379Z,-20249.31
2022-09-26T00:10:38.295Z,-20249.16
2022-09-26T00:13:05.880Z,-20248.72
2022-09-26T00:15:33.467Z,-20249.63
2022-09-26T00:18:01.285Z,-20250.09
2022-09-26T00:20:29.079Z,-20250.38
2022-09-26T00:22:56.638Z,-20249.63
2022-09-26T00:25:24.202Z,-20248.41
2022-09-26T00:27:53.189Z,-20248.41
2022-09-26T00:30:20.815Z,-20249.00
2022-09-26T00:32:48.402Z,-20247.94
2022-09-26T00:35:15.962Z,-20247.19
2022-09-26T00:37:43.503Z,-20247.19
2022-09-26T00:40:11.929Z,-20245.34
2022-09-26T00:42:39.543Z,-20245.34
2022-09-26T00:45:10.317Z,-20245.81
2022-09-26T00:47:45.851Z,-20245.03
2022-09-26T00:50:21.500Z,-20244.13
2022-09-26T00:52:53.754Z,-20244.72
2022-09-26T00:55:29.031Z,-20242.59
2022-09-26T00:58:05.151Z,-20244.28
2022-09-26T01:00:34.337Z,-20243.19
2022-09-26T01:03:02.680Z,-20243.19
2022-09-26T01:05:32.316Z,-20243.50
2022-09-26T01:08:01.294Z,-20241.53
2022-09-26T01:10:30.578Z,-20239.84
2022-09-26T01:13:00.842Z,-20240.59
2022-09-26T01:15:29.023Z,-20236.78
2022-09-26T01:17:58.156Z,-20238.00
2022-09-26T01:20:34.442Z,-20236.16
2022-09-26T01:23:49.666Z,-20233.72
2022-09-26T01:26:32.203Z,-20233.56
2022-09-26T01:29:41.899Z,-20233.09
2022-09-26T01:32:36.861Z,-20232.66
2022-09-26T01:35:13.462Z,-20230.66
2022-09-26T01:37:53.372Z,-20227.13
2022-09-26T01:40:31.516Z,-20226.69
2022-09-26T01:43:06.688Z,-20224.53
2022-09-26T01:45:43.386Z,-20224.22
2022-09-26T01:48:18.338Z,-20223.00
2022-09-26T01:50:51.290Z,-20219.50
2022-09-26T01:53:24.208Z,-20220.09
2022-09-26T01:55:56.005Z,-20220.56
2022-09-26T01:58:29.505Z,-20220.09
2022-09-26T02:01:01.707Z,-20216.88
2022-09-26T02:03:37.860Z,-20214.59
2022-09-26T02:06:10.306Z,-20213.53
2022-09-26T02:08:41.597Z,-20213.06
2022-09-26T02:11:13.312Z,-20212.59
2022-09-26T02:13:47.287Z,-20213.38
2022-09-26T02:16:22.208Z,-20212.44
2022-09-26T02:18:55.635Z,-20210.47
2022-09-26T02:21:24.870Z,-20209.84
2022-09-26T02:23:54.372Z,-20209.84
2022-09-26T02:26:22.311Z,-20209.22
2022-09-26T02:28:50.176Z,-20209.53
2022-09-26T02:31:23.093Z,-20208.31
2022-09-26T02:33:53.835Z,-20210.75
2022-09-26T02:36:23.187Z,-20209.69
2022-09-26T02:38:50.948Z,-20211.53
2022-09-26T02:41:29.148Z,-20212.00
2022-09-26T02:44:31.305Z,-20210.16
2022-09-26T02:47:16.754Z,-20205.88
2022-09-26T02:50:08.451Z,-20209.38
2022-09-26T02:52:46.210Z,-20210.16
2022-09-26T02:55:21.954Z,-20210.63
2022-09-26T02:58:05.459Z,-20213.22
2022-09-26T03:00:45.115Z,-20212.59
2022-09-26T03:03:19.689Z,-20207.41
2022-09-26T03:05:50.467Z,-20208.63
2022-09-26T03:08:23.516Z,-20209.22
2022-09-26T03:10:52.442Z,-20208.94
2022-09-26T03:13:21.154Z,-20204.50
2022-09-26T03:15:54.488Z,-20202.97
2022-09-26T03:18:25.973Z,-20201.13
2022-09-26T03:20:55.593Z,-20203.88
2022-09-26T03:23:24.371Z,-20203.72
2022-09-26T03:26:00.755Z,-20204.03
2022-09-26T03:28:31.753Z,-20201.72
2022-09-26T03:31:01.690Z,-20202.81
2022-09-26T03:33:29.314Z,-20201.44
2022-09-26T03:36:00.418Z,-20202.50
2022-09-26T03:38:28.440Z,-20201.88
2022-09-26T03:40:58.426Z,-20200.34
2022-09-26T03:43:26.730Z,-20200.03
2022-09-26T03:45:54.972Z,-20196.38
2022-09-26T03:48:22.628Z,-20196.53
2022-09-26T03:50:50.269Z,-20198.06
2022-09-26T03:53:19.792Z,-20198.38
2022-09-26T03:55:47.356Z,-20196.97
2022-09-26T03:58:15.432Z,-20202.66
2022-09-26T04:00:43.034Z,-20203.41
2022-09-26T04:03:10.622Z,-20203.09
2022-09-26T04:05:38.295Z,-20198.53
2022-09-26T04:08:05.893Z,-20198.22
2022-09-26T04:10:34.787Z,-20195.16
2022-09-26T04:13:03.075Z,-20198.53
2022-09-26T04:15:30.888Z,-20197.91
2022-09-26T04:17:58.480Z,-20196.06
2022-09-26T04:20:26.011Z,-20196.06
2022-09-26T04:22:53.575Z,-20194.22
2022-09-26T04:25:21.163Z,-20193.91
2022-09-26T04:27:50.037Z,-20193.63
2022-09-26T04:30:19.030Z,-20191.31
2022-09-26T04:32:46.579Z,-20188.72
2022-09-26T04:35:14.240Z,-20193.63
2022-09-26T04:37:41.914Z,-20193.91
2022-09-26T04:40:11.506Z,-20195.16
2022-09-26T04:42:41.394Z,-20194.53
2022-09-26T04:45:11.474Z,-20190.84
2022-09-26T04:47:39.050Z,-20191.31
2022-09-26T04:50:07.227Z,-20187.81
2022-09-26T04:52:34.796Z,-20188.25
2022-09-26T04:55:04.085Z,-20185.97
2022-09-26T04:57:31.996Z,-20184.28
2022-09-26T04:59:59.534Z,-20185.66
2022-09-26T05:02:30.378Z,-20181.97
2022-09-26T05:04:59.716Z,-20186.13
2022-09-26T05:07:27.963Z,-20185.66
2022-09-26T05:09:55.600Z,-20182.28
2022-09-26T05:12:23.217Z,-20183.50
2022-09-26T05:14:51.878Z,-20183.50
2022-09-26T05:17:21.494Z,-20183.50
2022-09-26T05:19:50.363Z,-20182.44
2022-09-26T05:22:17.883Z,-20182.59
2022-09-26T05:25:03.144Z,-20185.34
2022-09-26T05:27:31.511Z,-20185.34
2022-09-26T05:29:59.135Z,-20186.88
2022-09-26T05:32:28.946Z,-20185.34
2022-09-26T05:34:57.984Z,-20188.72
2022-09-26T05:37:25.600Z,-20189.78
2022-09-26T05:40:10.665Z,-20188.09
2022-09-26T05:42:38.449Z,-20190.84
2022-09-26T05:45:07.170Z,-20193.63
2022-09-26T05:47:36.159Z,-20195.75
2022-09-26T05:50:09.647Z,-20195.47
2022-09-26T05:52:37.632Z,-20197.44
2022-09-26T05:55:07.363Z,-20199.75
2022-09-26T05:57:35.441Z,-20207.56
2022-09-26T06:00:03.442Z,-20209.84
2022-09-26T06:02:31.015Z,-20211.22
2022-09-26T06:04:58.755Z,-20218.13
2022-09-26T06:07:27.638Z,-20229.28
2022-09-26T06:09:55.433Z,-20231.88
2022-09-26T06:12:23.410Z,-20228.06
2022-09-26T06:14:53.682Z,-20227.91
2022-09-26T06:17:21.240Z,-20222.69
2022-09-26T06:19:48.892Z,-20222.09
2022-09-26T06:22:16.781Z,-20220.25
2022-09-26T06:32:57.827Z,-20217.19
2022-09-26T06:35:25.475Z,-20218.13
2022-09-26T06:37:53.546Z,-20219.03
2022-09-26T06:40:21.236Z,-20220.56
2022-09-26T06:42:48.848Z,-20221.16
2022-09-26T06:45:16.440Z,-20221.47
2022-09-26T06:47:44.170Z,-20223.31
2022-09-26T06:50:13.102Z,-20223.47
2022-09-26T06:52:40.919Z,-20225.00
2022-09-26T06:55:10.246Z,-20227.00
2022-09-26T06:57:40.002Z,-20229.13
2022-09-26T07:00:10.030Z,-20233.09
2022-09-26T07:02:37.615Z,-20236.31
2022-09-26T07:05:06.211Z,-20239.84
2022-09-26T07:07:41.828Z,-20243.66
2022-09-26T07:10:10.889Z,-20247.19
2022-09-26T07:12:44.006Z,-20252.22
2022-09-26T07:15:13.717Z,-20256.66
2022-09-26T07:17:41.595Z,-20259.88
2022-09-26T07:20:11.515Z,-20263.69
2022-09-26T07:22:40.548Z,-20265.97
2022-09-26T07:25:09.240Z,-20272.56
2022-09-26T07:27:37.039Z,-20274.69
2022-09-26T07:30:06.191Z,-20279.44
2022-09-26T07:32:33.922Z,-20285.72
2022-09-26T07:35:03.331Z,-20293.03
2022-09-26T07:37:30.984Z,-20302.81
2022-09-26T07:40:01.795Z,-20330.00
2022-09-26T07:42:29.763Z,-20347.84
2022-09-26T07:48:02.662Z,-20383.38
2022-09-26T07:50:31.118Z,-20394.66
2022-09-26T07:52:58.906Z,-20406.06
2022-09-26T07:55:28.972Z,-20415.06
2022-09-26T07:57:57.917Z,-20421.47
2022-09-26T08:00:26.516Z,-20430.44
2022-09-26T08:02:54.355Z,-20417.50
2022-09-26T08:05:21.950Z,-20429.06
2022-09-26T08:07:50.168Z,-20443.53
2022-09-26T08:10:20.961Z,-20423.28
2022-09-26T08:12:50.345Z,-20429.38
2022-09-26T08:15:18.412Z,-20437.13
2022-09-26T08:17:45.946Z,-20426.34
2022-09-26T08:20:13.621Z,-20432.88
2022-09-26T08:22:41.215Z,-20439.56
2022-09-26T08:25:10.419Z,-20447.94
2022-09-26T08:27:38.019Z,-20437.59
2022-09-26T08:30:08.405Z,-20437.00
2022-09-26T08:32:37.141Z,-20436.22
2022-09-26T08:35:05.878Z,-20426.34
2022-09-26T08:37:33.839Z,-20438.50
2022-09-26T08:40:01.846Z,-20435.00
2022-09-26T08:42:41.723Z,-20446.28
2022-09-26T08:45:49.578Z,-20445.50
2022-09-26T08:48:33.000Z,-20464.97
2022-09-26T08:51:11.958Z,-20460.88
2022-09-26T08:53:45.746Z,-20470.47
2022-09-26T08:56:20.233Z,-20485.97
2022-09-26T08:58:52.239Z,-20470.75
2022-09-26T09:01:27.894Z,-20466.81
2022-09-26T09:04:02.697Z,-20473.97
2022-09-26T09:06:30.463Z,-20460.56
2022-09-26T09:08:59.000Z,-20452.19
2022-09-26T09:11:47.973Z,-20450.38
2022-09-26T09:14:42.182Z,-20474.88
2022-09-26T09:17:21.717Z,-20463.63
2022-09-26T09:20:01.353Z,-20445.81
2022-09-26T09:22:46.319Z,-20441.41
2022-09-26T09:25:19.166Z,-20433.63
2022-09-26T09:28:08.379Z,-20424.50
2022-09-26T09:30:42.212Z,-20437.59
2022-09-26T09:33:15.680Z,-20468.47
2022-09-26T09:35:45.899Z,-20454.94
2022-09-26T09:38:18.002Z,-20460.56
2022-09-26T09:40:52.235Z,-20468.94
2022-09-26T09:43:27.634Z,-20479.28
2022-09-26T09:45:59.897Z,-20445.97
2022-09-26T09:48:29.691Z,-20422.06
2022-09-26T09:51:11.533Z,-20410.81
2022-09-26T09:54:00.159Z,-20399.97
2022-09-26T09:56:36.503Z,-20401.06
2022-09-26T09:59:25.874Z,-20407.31
2022-09-26T10:02:10.541Z,-20399.22
2022-09-26T10:04:46.392Z,-20401.97
2022-09-26T10:07:14.221Z,-20404.41
2022-09-26T10:09:44.530Z,-20387.63
2022-09-26T10:12:16.920Z,-20383.97
2022-09-26T10:14:53.035Z,-20380.94
2022-09-26T10:17:23.302Z,-20383.38
2022-09-26T10:19:52.654Z,-20384.91
2022-09-26T10:22:28.892Z,-20395.25
2022-09-26T10:25:02.970Z,-20398.91
2022-09-26T10:27:37.897Z,-20397.84
2022-09-26T10:30:25.633Z,-20401.66
2022-09-26T10:32:57.038Z,-20403.50
2022-09-26T10:35:29.478Z,-20403.19
2022-09-26T10:38:02.602Z,-20411.09
2022-09-26T10:40:46.310Z,-20426.63
2022-09-26T10:43:28.616Z,-20446.72
2022-09-26T10:46:03.080Z,-20454.03
2022-09-26T10:48:51.685Z,-20441.72
2022-09-26T10:51:26.776Z,-20451.59
2022-09-26T10:54:03.855Z,-20437.00
2022-09-26T10:56:38.065Z,-20445.66
2022-09-26T10:59:09.076Z,-20433.03
2022-09-26T11:01:42.873Z,-20436.38
2022-09-26T11:04:38.205Z,-20429.06
2022-09-26T11:07:09.540Z,-20434.41
2022-09-26T11:09:38.849Z,-20419.94
2022-09-26T11:12:25.176Z,-20428.75
2022-09-26T11:14:56.839Z,-20418.09
2022-09-26T11:17:43.259Z,-20423.59
2022-09-26T11:20:17.478Z,-20420.09
2022-09-26T11:22:53.153Z,-20420.84
2022-09-26T11:25:26.717Z,-20438.50
2022-09-26T11:28:02.794Z,-20439.72
2022-09-26T11:30:33.832Z,-20433.78
2022-09-26T11:33:05.449Z,-20441.25
2022-09-26T11:35:46.863Z,-20435.16
2022-09-26T11:38:38.344Z,-20442.78
2022-09-26T11:41:45.511Z,-20437.59
2022-09-26T11:44:42.483Z,-20434.72
2022-09-26T11:47:36.962Z,-20442.16
2022-09-26T11:50:23.595Z,-20449.16
2022-09-26T11:53:05.107Z,-20447.34
2022-09-26T11:55:45.486Z,-20461.63
2022-09-26T11:58:22.656Z,-20462.56
2022-09-26T12:00:58.024Z,-20455.56
2022-09-26T12:04:03.440Z,-20459.81
2022-09-26T12:06:36.466Z,-20444.00
2022-09-26T12:09:14.687Z,-20435.00
2022-09-26T12:11:49.922Z,-20421.47
2022-09-26T12:14:39.214Z,-20410.34
2022-09-26T12:17:15.482Z,-20405.16
2022-09-26T12:19:50.205Z,-20377.88
2022-09-26T12:22:29.237Z,-20377.72
2022-09-26T12:25:11.219Z,-20372.84
2022-09-26T12:27:48.918Z,-20365.38
2022-09-26T12:30:21.463Z,-20369.34
2022-09-26T12:33:05.703Z,-20367.38
2022-09-26T12:35:45.202Z,-20361.41
2022-09-26T12:38:24.684Z,-20359.75
2022-09-26T12:41:07.227Z,-20355.31
2022-09-26T12:44:07.634Z,-20359.59
2022-09-26T12:46:51.040Z,-20364.63
2022-09-26T12:49:37.558Z,-20366.59
2022-09-26T12:52:21.551Z,-20371.19
2022-09-26T12:55:10.247Z,-20368.44
2022-09-26T12:57:48.910Z,-20363.25
2022-09-26T13:00:22.130Z,-20367.53
2022-09-26T13:03:06.097Z,-20359.75
2022-09-26T13:05:50.680Z,-20358.97
2022-09-26T13:08:27.007Z,-20365.69
2022-09-26T13:11:06.621Z,-20366.31
2022-09-26T13:14:09.080Z,-20370.88
2022-09-26T13:16:53.608Z,-20373.31
2022-09-26T13:19:28.129Z,-20381.25
2022-09-26T13:22:00.009Z,-20384.44
2022-09-26T13:24:35.844Z,-20389.16
2022-09-26T13:27:13.197Z,-20394.34
2022-09-26T13:29:46.144Z,-20397.53
2022-09-26T13:32:22.826Z,-20393.72
2022-09-26T13:34:55.657Z,-20392.53
2022-09-26T13:37:37.973Z,-20392.53
2022-09-26T13:40:24.344Z,-20391.16
2022-09-26T13:43:05.885Z,-20394.94
2022-09-26T13:45:46.593Z,-20394.03
2022-09-26T13:48:24.163Z,-20387.19
2022-09-26T13:50:56.481Z,-20383.53
2022-09-26T13:53:32.261Z,-20380.31
2022-09-26T13:56:31.134Z,-20377.72
2022-09-26T13:59:04.741Z,-20372.09
2022-09-26T14:01:33.457Z,-20376.66
2022-09-26T14:04:21.364Z,-20381.25
2022-09-26T14:07:24.306Z,-20385.66
2022-09-26T14:09:56.211Z,-20386.72
2022-09-26T14:12:52.177Z,-20387.63
2022-09-26T14:15:24.162Z,-20372.41
2022-09-26T14:18:15.342Z,-20377.28
2022-09-26T14:20:59.083Z,-20375.59
2022-09-26T14:23:41.962Z,-20371.78
2022-09-26T14:26:12.259Z,-20368.13
2022-09-26T14:28:47.877Z,-20369.66
2022-09-26T14:31:43.795Z,-20368.44
2022-09-26T14:34:36.590Z,-20364.47
2022-09-26T14:37:25.731Z,-20363.88
2022-09-26T14:40:01.734Z,-20366.00
2022-09-26T14:42:39.903Z,-20369.03
2022-09-26T14:45:18.913Z,-20366.00
2022-09-26T14:47:54.971Z,-20366.16
2022-09-26T14:50:35.287Z,-20365.09
2022-09-26T14:53:14.771Z,-20364.78
2022-09-26T14:55:55.439Z,-20369.03
2022-09-26T14:58:32.002Z,-20367.53
2022-09-26T15:01:04.930Z,-20368.44
2022-09-26T15:03:34.390Z,-20369.66
2022-09-26T15:06:04.512Z,-20372.84
2022-09-26T15:08:39.366Z,-20366.16
2022-09-26T15:11:08.133Z,-20366.59
2022-09-26T15:13:38.973Z,-20366.91
2022-09-26T15:16:20.188Z,-20364.78
2022-09-26T15:18:53.036Z,-20362.19
2022-09-26T15:21:27.792Z,-20364.47
2022-09-26T15:23:57.838Z,-20366.44
2022-09-26T15:26:28.181Z,-20370.88
2022-09-26T15:28:57.931Z,-20365.22
2022-09-26T15:31:37.288Z,-20363.25
2022-09-26T15:34:12.757Z,-20366.91
2022-09-26T15:36:42.492Z,-20367.38
2022-09-26T15:39:42.429Z,-20370.88
2022-09-26T15:42:43.653Z,-20369.97
2022-09-26T15:45:26.847Z,-20370.56
2022-09-26T15:47:56.319Z,-20373.63
2022-09-26T15:50:28.391Z,-20371.03
2022-09-26T15:53:01.145Z,-20370.88
2022-09-26T15:55:34.542Z,-20366.16
2022-09-26T15:58:07.558Z,-20363.56
2022-09-26T16:00:38.461Z,-20364.16
2022-09-26T16:03:28.541Z,-20367.97
2022-09-26T16:05:56.373Z,-20366.31
2022-09-26T16:08:26.914Z,-20365.38
2022-09-26T16:10:57.082Z,-20369.03
2022-09-26T16:13:29.874Z,-20368.59
2022-09-26T16:16:03.843Z,-20366.00
2022-09-26T16:18:39.566Z,-20364.78
2022-09-26T16:21:19.834Z,-20365.69
2022-09-26T16:23:49.773Z,-20361.09
2022-09-26T16:26:29.970Z,-20357.16
2022-09-26T16:29:00.236Z,-20355.94
2022-09-26T16:31:30.737Z,-20355.94
2022-09-26T16:34:01.046Z,-20358.97
2022-09-26T16:36:30.713Z,-20360.34
2022-09-26T16:39:01.144Z,-20356.22
2022-09-26T16:44:31.852Z,-20362.03
2022-09-26T16:47:05.154Z,-20361.09
2022-09-26T16:49:45.913Z,-20357.28
2022-09-26T16:52:30.732Z,-20359.44
2022-09-26T16:55:00.650Z,-20357.00
2022-09-26T16:57:30.627Z,-20353.78
2022-09-26T17:00:20.594Z,-20356.22
2022-09-26T17:02:48.340Z,-20356.09
2022-09-26T17:05:18.363Z,-20353.47
2022-09-26T17:07:47.014Z,-20356.53
2022-09-26T17:10:15.217Z,-20355.63
2022-09-26T17:12:43.072Z,-20355.94
2022-09-26T17:15:20.302Z,-20355.94
2022-09-26T17:17:48.809Z,-20358.66
2022-09-26T17:20:16.812Z,-20357.16
2022-09-26T17:22:44.693Z,-20357.91
2022-09-26T17:25:13.681Z,-20358.06
2022-09-26T17:27:43.339Z,-20357.44
2022-09-26T17:30:17.925Z,-20357.75
2022-09-26T17:32:49.883Z,-20359.13
2022-09-26T17:35:23.811Z,-20357.75
2022-09-26T17:37:52.146Z,-20355.94
2022-09-26T17:40:24.176Z,-20356.84
2022-09-26T17:42:55.145Z,-20353.03
2022-09-26T17:45:29.111Z,-20350.13
2022-09-26T17:47:58.977Z,-20348.59
2022-09-26T17:50:29.818Z,-20344.63
2022-09-26T17:52:58.907Z,-20347.38
2022-09-26T17:55:27.550Z,-20345.84
2022-09-26T17:57:55.597Z,-20346.78
2022-09-26T18:00:25.107Z,-20343.25
2022-09-26T18:02:56.892Z,-20340.38
2022-09-26T18:05:26.973Z,-20331.81
2022-09-26T18:07:59.185Z,-20328.16
2022-09-26T18:10:30.364Z,-20321.13
2022-09-26T18:13:00.783Z,-20314.25
2022-09-26T18:15:31.244Z,-20312.28
2022-09-26T18:18:00.340Z,-20306.03
2022-09-26T18:20:36.994Z,-20302.19
2022-09-26T18:23:07.166Z,-20304.19
2022-09-26T18:25:37.536Z,-20304.78
2022-09-26T18:28:08.088Z,-20302.66
2022-09-26T18:30:38.777Z,-20300.38
2022-09-26T18:33:07.073Z,-20297.94
2022-09-26T18:35:34.796Z,-20293.66
2022-09-26T18:38:02.629Z,-20291.97
2022-09-26T18:40:30.980Z,-20290.91
2022-09-26T18:42:59.495Z,-20290.91
2022-09-26T18:45:29.867Z,-20289.81
2022-09-26T18:47:59.129Z,-20287.84
2022-09-26T18:50:33.048Z,-20286.94
2022-09-26T18:53:00.901Z,-20286.31
2022-09-26T18:55:46.477Z,-20284.63
2022-09-26T18:58:27.847Z,-20282.66
2022-09-26T19:00:58.995Z,-20287.53
2022-09-26T19:03:30.611Z,-20283.25
2022-09-26T19:06:04.237Z,-20284.94
2022-09-26T19:08:35.406Z,-20280.97
2022-09-26T19:11:10.990Z,-20280.50
2022-09-26T19:13:38.798Z,-20279.28
2022-09-26T19:16:07.355Z,-20277.13
2022-09-26T19:18:37.511Z,-20277.44
2022-09-26T19:21:08.250Z,-20278.38
2022-09-26T19:23:37.982Z,-20276.22
2022-09-26T19:26:07.095Z,-20277.28
2022-09-26T19:28:37.086Z,-20276.22
2022-09-26T19:31:05.562Z,-20273.94
2022-09-26T19:33:33.682Z,-20270.41
2022-09-26T19:36:03.061Z,-20273.47
2022-09-26T19:38:30.710Z,-20269.81
2022-09-26T19:40:58.551Z,-20271.63
2022-09-26T19:43:26.238Z,-20269.34
2022-09-26T19:45:55.814Z,-20267.66
2022-09-26T19:48:24.447Z,-20265.06
2022-09-26T19:50:52.870Z,-20266.75
2022-09-26T19:53:24.833Z,-20266.75
2022-09-26T19:55:52.842Z,-20267.22
2022-09-26T19:58:22.350Z,-20267.06
2022-09-26T20:00:52.165Z,-20266.28
2022-09-26T20:03:22.057Z,-20267.22
2022-09-26T20:05:50.884Z,-20265.38
2022-09-26T20:08:21.854Z,-20265.22
2022-09-26T20:10:51.488Z,-20265.38
2022-09-26T20:13:19.611Z,-20264.59
2022-09-26T20:15:48.711Z,-20264.59
2022-09-26T20:18:20.632Z,-20264.00
2022-09-26T20:20:52.703Z,-20264.59
2022-09-26T20:23:22.516Z,-20263.38
2022-09-26T20:25:53.667Z,-20263.69
2022-09-26T20:28:21.727Z,-20262.78
2022-09-26T20:30:52.666Z,-20260.63
2022-09-26T20:33:22.227Z,-20262.16
2022-09-26T20:35:53.846Z,-20260.34
2022-09-26T20:38:27.141Z,-20260.78
2022-09-26T20:41:01.496Z,-20262.31
2022-09-26T20:43:33.641Z,-20260.94
2022-09-26T20:46:04.218Z,-20260.19
2022-09-26T20:48:34.436Z,-20261.25
2022-09-26T20:51:02.507Z,-20260.94
2022-09-26T20:53:30.137Z,-20260.34
2022-09-26T20:55:59.250Z,-20260.47
2022-09-26T20:58:26.898Z,-20261.56
2022-09-26T21:00:54.721Z,-20261.56
2022-09-26T21:03:25.720Z,-20261.09
2022-09-26T21:05:53.457Z,-20261.41
2022-09-26T21:08:26.950Z,-20260.63
2022-09-26T21:10:56.094Z,-20262.00
2022-09-26T21:13:25.162Z,-20260.19
2022-09-26T21:15:53.785Z,-20261.56
2022-09-26T21:18:25.337Z,-20260.47
2022-09-26T21:20:53.932Z,-20259.72
2022-09-26T21:23:22.419Z,-20259.25
2022-09-26T21:25:50.346Z,-20259.88
2022-09-26T21:28:26.474Z,-20259.25
2022-09-26T21:30:55.895Z,-20258.19
2022-09-26T21:33:24.132Z,-20258.50
2022-09-26T21:35:52.216Z,-20258.19
2022-09-26T21:38:21.473Z,-20258.66
2022-09-26T21:40:53.551Z,-20257.88
2022-09-26T21:43:23.683Z,-20258.50
2022-09-26T21:45:52.753Z,-20257.59
2022-09-26T21:48:20.585Z,-20258.50
2022-09-26T21:50:57.414Z,-20258.03
2022-09-26T21:53:31.048Z,-20257.88
2022-09-26T21:56:07.479Z,-20257.59
2022-09-26T21:58:39.370Z,-20258.50
2022-09-26T22:01:08.936Z,-20257.13
2022-09-26T22:03:37.169Z,-20257.28
2022-09-26T22:06:07.578Z,-20258.50
2022-09-26T22:08:35.644Z,-20257.59
2022-09-26T22:11:03.587Z,-20258.19
2022-09-26T22:13:33.034Z,-20256.66
2022-09-26T22:16:05.941Z,-20256.03
2022-09-26T22:18:36.649Z,-20256.03
2022-09-26T22:21:04.702Z,-20256.03
2022-09-26T22:23:33.426Z,-20256.03
2022-09-26T22:26:01.409Z,-20255.75
2022-09-26T22:28:29.615Z,-20255.75
2022-09-26T22:31:01.081Z,-20254.53
2022-09-26T22:33:28.887Z,-20253.91
2022-09-26T22:35:58.607Z,-20253.91
2022-09-26T22:38:26.773Z,-20252.53
2022-09-26T22:40:58.317Z,-20253.28
2022-09-26T22:43:26.214Z,-20253.75
2022-09-26T22:45:54.589Z,-20253.28
2022-09-26T22:48:22.234Z,-20254.38
2022-09-26T22:50:50.162Z,-20253.91
2022-09-26T22:53:19.570Z,-20253.59
2022-09-26T22:55:54.263Z,-20254.81
2022-09-26T22:58:22.430Z,-20255.13
2022-09-26T23:00:51.072Z,-20256.34
2022-09-26T23:03:18.709Z,-20255.59
2022-09-26T23:05:49.129Z,-20257.88
2022-09-26T23:08:17.039Z,-20256.66
2022-09-26T23:10:51.090Z,-20257.88
2022-09-26T23:13:19.326Z,-20257.88
2022-09-26T23:15:47.202Z,-20256.66
2022-09-26T23:18:15.731Z,-20257.28
2022-09-26T23:20:44.374Z,-20259.41
2022-09-26T23:23:13.598Z,-20259.41
2022-09-26T23:25:47.391Z,-20260.34
2022-09-26T23:28:17.342Z,-20259.72
2022-09-26T23:30:45.368Z,-20261.09
2022-09-26T23:33:13.686Z,-20261.56
2022-09-26T23:35:41.436Z,-20261.84
2022-09-26T23:38:09.596Z,-20261.84
2022-09-26T23:40:38.444Z,-20260.63
2022-09-26T23:43:06.480Z,-20260.19
2022-09-26T23:45:37.030Z,-20262.47
2022-09-26T23:48:05.099Z,-20262.94
2022-09-26T23:50:32.730Z,-20262.63
2022-09-26T23:53:04.470Z,-20262.47
2022-09-26T23:55:34.252Z,-20263.09
2022-09-26T23:58:01.905Z,-20264.16
